Time;durP1;ratioP1;P1;durP2;ratioP2;P2;SDS_P1;SDS_P2;PMS_P1;PMS_P2;Temp;Humidity;BMP_temperature;BMP_pressure;BME280_temperature;BME280_humidity;BME280_pressure;Samples;Min_cycle;Max_cycle;Signal;HPM_P1;HPM_P2
2024/02/26 00:01:39;;;;;;;9.05;5.43;;;0.10;99.90;;;-148.53;100.00;63986.66;5045382;28;20056;-81
2024/02/26 00:04:05;;;;;;;8.60;4.93;;;0.00;99.90;;;-148.53;100.00;63986.66;5014705;28;20034;-82
2024/02/26 00:06:31;;;;;;;7.93;4.80;;;-0.10;99.90;;;-148.53;100.00;63986.66;5022099;28;20516;-82
2024/02/26 00:08:57;;;;;;;8.27;5.13;;;-0.20;99.90;;;-148.53;100.00;63986.66;5023385;28;20083;-83
2024/02/26 00:11:23;;;;;;;10.52;5.50;;;-0.10;99.90;;;-148.53;100.00;63986.66;5029796;28;20105;-82
2024/02/26 00:13:49;;;;;;;9.23;5.30;;;-0.10;99.90;;;-148.53;100.00;63986.66;5034227;28;20052;-83
2024/02/26 00:16:15;;;;;;;9.30;5.43;;;-0.10;99.90;;;-148.53;100.00;63986.66;5018994;28;20042;-83
2024/02/26 00:18:40;;;;;;;9.73;5.82;;;0.00;99.90;;;-148.53;100.00;63986.66;5022051;28;20177;-84
2024/02/26 00:21:06;;;;;;;9.15;5.63;;;0.00;99.90;;;-148.53;100.00;63986.66;5023554;28;20477;-84
2024/02/26 00:23:32;;;;;;;10.40;5.45;;;-0.10;99.90;;;-148.53;100.00;63986.66;5022966;28;20071;-83
2024/02/26 00:25:58;;;;;;;9.15;6.18;;;-0.10;99.90;;;-148.53;100.00;63986.66;5026224;28;20038;-83
2024/02/26 00:28:24;;;;;;;9.52;6.18;;;0.30;99.90;;;-148.53;100.00;63986.66;5026514;28;20041;-83
2024/02/26 00:30:55;;;;;;;12.60;6.85;;;0.30;99.90;;;-148.53;100.00;63986.66;5020420;28;20060;-83
2024/02/26 00:33:22;;;;;;;10.13;6.32;;;0.40;99.90;;;-148.53;100.00;63986.66;5024004;28;20044;-83
2024/02/26 00:35:48;;;;;;;10.23;6.20;;;0.40;99.90;;;-148.53;100.00;63986.66;5026777;28;20072;-83
2024/02/26 00:38:14;;;;;;;9.05;5.90;;;0.40;99.90;;;-148.53;100.00;63986.66;5027212;28;20464;-83
2024/02/26 00:40:40;;;;;;;10.32;6.13;;;0.30;99.90;;;-148.53;100.00;63986.66;5039515;28;20108;-83
2024/02/26 00:43:09;;;;;;;9.73;5.95;;;0.20;99.90;;;-148.53;100.00;63986.66;5022183;28;20038;-82
2024/02/26 00:45:35;;;;;;;9.68;6.50;;;0.10;99.90;;;-148.53;100.00;63986.66;5018279;28;20576;-83
2024/02/26 00:48:07;;;;;;;11.77;6.70;;;0.10;99.90;;;-148.53;100.00;63986.66;5031110;28;20116;-83
2024/02/26 00:50:33;;;;;;;11.13;6.60;;;0.00;99.90;;;-148.53;100.00;63986.66;5030905;28;20045;-83
2024/02/26 00:53:02;;;;;;;10.45;6.10;;;0.10;99.90;;;-148.53;100.00;63986.66;5015137;28;20045;-81
2024/02/26 00:55:27;;;;;;;9.40;6.57;;;0.00;99.90;;;-148.53;100.00;63986.66;5019061;28;20112;-83
2024/02/26 00:57:53;;;;;;;14.30;6.68;;;0.10;99.90;;;-148.53;100.00;63986.66;5014182;28;20350;-82
2024/02/26 01:00:19;;;;;;;12.75;7.38;;;0.10;99.90;;;-148.53;100.00;63986.66;5012871;28;20037;-82
2024/02/26 01:02:48;;;;;;;11.77;7.05;;;0.00;99.90;;;-148.53;100.00;63986.66;5023361;28;20037;-82
2024/02/26 01:05:14;;;;;;;11.07;7.38;;;-0.10;99.90;;;-148.53;100.00;63986.66;5032443;28;20172;-82
2024/02/26 01:07:40;;;;;;;10.48;6.63;;;0.10;99.90;;;-148.53;100.00;63986.66;5030313;28;20045;-83
2024/02/26 01:10:07;;;;;;;10.65;6.63;;;0.10;99.90;;;-148.53;100.00;63986.66;5044944;28;20034;-82
2024/02/26 01:12:36;;;;;;;11.00;6.63;;;0.20;99.90;;;-148.53;100.00;63986.66;5018219;28;20042;-82
2024/02/26 01:15:03;;;;;;;12.35;6.68;;;0.30;99.90;;;-148.53;100.00;63986.66;5017851;28;20465;-81
2024/02/26 01:17:29;;;;;;;10.60;6.43;;;0.30;99.90;;;-148.53;100.00;63986.66;5013781;28;20394;-83
2024/02/26 01:19:54;;;;;;;11.38;6.90;;;0.30;99.90;;;-148.53;100.00;63986.66;5016295;28;20470;-83
2024/02/26 01:22:21;;;;;;;10.85;6.78;;;0.20;99.90;;;-148.53;100.00;63986.66;5028891;28;20040;-83
2024/02/26 01:24:47;;;;;;;11.27;6.78;;;0.20;99.90;;;-148.53;100.00;63986.66;5030367;28;20044;-83
2024/02/26 01:27:14;;;;;;;10.55;6.72;;;0.20;99.90;;;-148.53;100.00;63986.66;5035774;28;20470;-82
2024/02/26 01:29:40;;;;;;;11.18;6.65;;;0.20;99.90;;;-148.53;100.00;63986.66;5033895;28;20790;-81
2024/02/26 01:32:06;;;;;;;10.68;6.75;;;0.10;99.90;;;-148.53;100.00;63986.66;5013491;28;20389;-82
2024/02/26 01:34:32;;;;;;;11.77;6.38;;;0.10;99.90;;;-148.53;100.00;63986.66;5028928;28;20045;-81
2024/02/26 01:36:58;;;;;;;9.02;5.85;;;0.10;99.90;;;-148.53;100.00;63986.66;5025145;28;20393;-82
2024/02/26 01:39:24;;;;;;;12.00;6.90;;;0.10;99.90;;;-148.53;100.00;63986.66;5013310;28;20044;-82
2024/02/26 01:41:49;;;;;;;9.48;6.15;;;0.20;99.90;;;-148.53;100.00;63986.66;5024300;28;20042;-82
2024/02/26 01:44:15;;;;;;;10.05;5.90;;;0.30;99.90;;;-148.53;100.00;63986.66;5025781;28;20037;-82
2024/02/26 01:46:41;;;;;;;9.18;6.35;;;0.40;99.90;;;-148.53;100.00;63986.66;5013039;28;20080;-83
2024/02/26 01:49:12;;;;;;;7.75;5.75;;;0.50;99.90;;;-148.53;100.00;63986.66;5023549;28;20103;-82
2024/02/26 01:51:41;;;;;;;10.20;6.32;;;0.50;99.90;;;-148.53;100.00;63986.66;5022897;28;20074;-82
2024/02/26 01:54:08;;;;;;;9.13;6.13;;;0.50;99.90;;;-148.53;100.00;63986.66;5029480;28;20436;-82
2024/02/26 01:56:37;;;;;;;7.95;5.50;;;0.40;99.90;;;-148.53;100.00;63986.66;5018247;28;20041;-82
2024/02/26 01:59:05;;;;;;;9.88;6.10;;;0.40;99.90;;;-148.53;100.00;63986.66;5018808;28;20159;-82
2024/02/26 02:01:33;;;;;;;10.95;5.78;;;0.50;99.90;;;-148.53;100.00;63986.66;5016100;28;20045;-82
2024/02/26 02:04:00;;;;;;;9.75;5.40;;;0.60;99.90;;;-148.53;100.00;63986.66;5012506;28;20323;-81
2024/02/26 02:06:30;;;;;;;10.20;5.67;;;0.60;99.90;;;-148.53;100.00;63986.66;5028355;28;20034;-81
2024/02/26 02:08:56;;;;;;;8.25;5.35;;;0.60;99.90;;;-148.53;100.00;63986.66;5027985;28;20491;-82
2024/02/26 02:11:22;;;;;;;10.63;5.95;;;0.60;99.90;;;-148.53;100.00;63986.66;5026804;28;20466;-82
2024/02/26 02:13:47;;;;;;;9.63;5.22;;;0.70;99.90;;;-148.53;100.00;63986.66;5023479;28;20049;-81
2024/02/26 02:16:13;;;;;;;7.78;5.15;;;0.70;99.90;;;-148.53;100.00;63986.66;5012990;28;20039;-82
2024/02/26 02:18:39;;;;;;;10.18;5.35;;;0.70;99.90;;;-148.53;100.00;63986.66;5029787;28;20041;-82
2024/02/26 02:21:05;;;;;;;8.18;4.68;;;0.70;99.90;;;-148.53;100.00;63986.66;5018963;28;20369;-82
2024/02/26 02:23:31;;;;;;;7.55;4.82;;;0.70;99.90;;;-148.53;100.00;63986.66;5019832;28;20046;-82
2024/02/26 02:25:58;;;;;;;8.77;5.07;;;0.70;99.90;;;-148.53;100.00;63986.66;5032219;28;20041;-82
2024/02/26 02:28:27;;;;;;;8.23;5.22;;;0.70;99.90;;;-148.53;100.00;63986.66;5021246;28;20045;-82
2024/02/26 02:30:54;;;;;;;9.45;5.38;;;0.70;99.90;;;-148.53;100.00;63986.66;5027316;28;20045;-82
2024/02/26 02:33:20;;;;;;;8.43;5.15;;;0.80;99.90;;;-148.53;100.00;63986.66;5017424;28;20034;-82
2024/02/26 02:35:46;;;;;;;8.38;4.82;;;0.80;99.90;;;-148.53;100.00;63986.66;5016753;28;20425;-82
2024/02/26 02:38:12;;;;;;;8.43;4.80;;;0.70;99.90;;;-148.53;100.00;63986.66;5036694;28;20045;-82
2024/02/26 02:40:37;;;;;;;8.55;5.13;;;0.80;99.90;;;-148.53;100.00;63986.66;5013769;28;20045;-83
2024/02/26 02:43:04;;;;;;;9.57;5.55;;;0.80;99.90;;;-148.53;100.00;63986.66;5033725;28;20046;-82
2024/02/26 02:45:30;;;;;;;8.18;5.18;;;0.80;99.90;;;-148.53;100.00;63986.66;5033138;28;20040;-82
2024/02/26 02:47:56;;;;;;;8.40;4.80;;;0.80;99.90;;;-148.53;100.00;63986.66;5023558;28;20030;-83
2024/02/26 02:50:22;;;;;;;8.88;5.07;;;0.70;99.90;;;-148.53;100.00;63986.66;5023520;28;20085;-82
2024/02/26 02:52:49;;;;;;;7.93;4.55;;;0.80;99.90;;;-148.53;100.00;63986.66;5042854;28;19928;-82
2024/02/26 02:55:16;;;;;;;8.07;4.97;;;0.80;99.90;;;-148.53;100.00;63986.66;5031555;28;20042;-82
2024/02/26 02:57:42;;;;;;;8.60;4.57;;;0.70;99.90;;;-148.53;100.00;63986.66;5022205;28;20061;-82
2024/02/26 03:00:12;;;;;;;6.50;4.22;;;0.70;99.90;;;-148.53;100.00;63986.66;5015677;28;20045;-82
2024/02/26 03:02:38;;;;;;;7.28;4.95;;;0.70;99.90;;;-148.53;100.00;63986.66;5015825;28;20052;-82
2024/02/26 03:05:04;;;;;;;9.30;4.88;;;0.70;99.90;;;-148.53;100.00;63986.66;5031526;28;20045;-82
2024/02/26 03:07:31;;;;;;;7.43;4.55;;;0.60;99.90;;;-148.53;100.00;63986.66;5026277;28;20088;-82
2024/02/26 03:09:56;;;;;;;7.35;4.47;;;0.60;99.90;;;-148.53;100.00;63986.66;5021270;28;20078;-82
2024/02/26 03:12:22;;;;;;;8.88;5.00;;;0.70;99.90;;;-148.53;100.00;63986.66;5025800;28;20048;-82
2024/02/26 03:14:48;;;;;;;7.22;4.45;;;0.80;99.90;;;-148.53;100.00;63986.66;5026670;28;20046;-81
2024/02/26 03:17:14;;;;;;;8.30;4.78;;;0.80;99.90;;;-148.53;100.00;63986.66;5023806;28;20029;-82
2024/02/26 03:19:39;;;;;;;8.30;3.95;;;0.80;99.90;;;-148.53;100.00;63986.66;5015986;28;20042;-82
2024/02/26 03:22:05;;;;;;;7.18;4.40;;;0.80;99.90;;;-148.53;100.00;63986.66;5023676;28;20030;-82
2024/02/26 03:24:31;;;;;;;7.28;4.85;;;0.80;99.90;;;-148.53;100.00;63986.66;5026908;28;20650;-82
2024/02/26 03:26:57;;;;;;;6.95;4.15;;;0.80;99.90;;;-148.53;100.00;63986.66;5020137;28;20148;-82
2024/02/26 03:29:23;;;;;;;7.35;4.47;;;0.70;99.90;;;-148.53;100.00;63986.66;5037183;28;20042;-82
2024/02/26 03:31:48;;;;;;;7.15;4.35;;;0.70;99.90;;;-148.53;100.00;63986.66;5027639;28;20034;-81
2024/02/26 03:34:14;;;;;;;7.32;4.72;;;0.70;99.90;;;-148.53;100.00;63986.66;5015759;28;20029;-82
2024/02/26 03:36:41;;;;;;;5.82;3.95;;;0.70;99.90;;;-148.53;100.00;63986.66;5015889;28;20464;-82
2024/02/26 03:39:07;;;;;;;5.97;3.97;;;0.70;99.90;;;-148.53;100.00;63986.66;5010858;28;20115;-81
2024/02/26 03:41:36;;;;;;;6.97;4.13;;;0.80;99.90;;;-148.53;100.00;63986.66;5030688;28;20038;-81
2024/02/26 03:44:02;;;;;;;7.00;3.90;;;0.80;99.90;;;-148.53;100.00;63986.66;5032394;28;20034;-81
2024/02/26 03:46:28;;;;;;;6.03;3.97;;;0.80;99.90;;;-148.53;100.00;63986.66;5039773;28;20425;-81
2024/02/26 03:48:54;;;;;;;6.45;4.30;;;0.80;99.90;;;-148.53;100.00;63986.66;5057425;28;20092;-81
2024/02/26 03:51:20;;;;;;;8.07;4.35;;;0.80;99.90;;;-148.53;100.00;63986.66;5021644;28;20045;-82
2024/02/26 03:53:45;;;;;;;8.18;4.65;;;0.80;99.90;;;-148.53;100.00;63986.66;5020685;28;20049;-82
2024/02/26 03:56:13;;;;;;;8.07;4.50;;;0.80;99.90;;;-148.53;100.00;63986.66;5029494;28;20363;-82
2024/02/26 03:58:39;;;;;;;7.13;4.68;;;0.80;99.90;;;-148.53;100.00;63986.66;5022235;28;20042;-82
2024/02/26 04:01:08;;;;;;;6.65;4.10;;;0.70;99.90;;;-148.53;100.00;63986.66;5020730;28;20034;-82
2024/02/26 04:03:35;;;;;;;6.65;4.22;;;0.70;99.90;;;-148.53;100.00;63986.66;5014764;28;20046;-82
2024/02/26 04:06:02;;;;;;;6.95;3.92;;;0.70;99.90;;;-148.53;100.00;63986.66;5036461;28;20048;-82
2024/02/26 04:08:28;;;;;;;7.00;4.10;;;0.70;99.90;;;-148.53;100.00;63986.66;5021265;28;20080;-82
2024/02/26 04:10:53;;;;;;;6.47;4.07;;;0.60;99.90;;;-148.53;100.00;63986.66;5037435;28;20038;-82
2024/02/26 04:13:20;;;;;;;7.78;4.38;;;0.70;99.90;;;-148.53;100.00;63986.66;5015453;28;20042;-82
2024/02/26 04:15:46;;;;;;;6.60;4.00;;;0.70;99.90;;;-148.53;100.00;63986.66;5030922;28;20409;-82
2024/02/26 04:18:12;;;;;;;6.68;4.15;;;0.70;99.90;;;-148.53;100.00;63986.66;5027259;28;20041;-83
2024/02/26 04:20:38;;;;;;;6.65;3.78;;;0.70;99.90;;;-148.53;100.00;63986.66;5019486;28;20101;-82
2024/02/26 04:23:04;;;;;;;7.30;4.15;;;0.70;99.90;;;-148.53;100.00;63986.66;5025690;28;20382;-82
2024/02/26 04:25:30;;;;;;;6.53;4.00;;;0.70;99.90;;;-148.53;100.00;63986.66;5017876;28;20147;-83
2024/02/26 04:27:55;;;;;;;8.13;4.30;;;0.70;99.90;;;-148.53;100.00;63986.66;5030585;28;20043;-81
2024/02/26 04:30:21;;;;;;;8.02;4.95;;;0.70;99.90;;;-148.53;100.00;63986.66;5015115;28;20034;-82
2024/02/26 04:32:47;;;;;;;7.75;4.22;;;0.80;99.90;;;-148.53;100.00;63986.66;5021174;28;20034;-82
2024/02/26 04:35:12;;;;;;;10.32;5.00;;;0.80;99.90;;;-148.53;100.00;63986.66;5018447;28;20043;-83
2024/02/26 04:37:38;;;;;;;6.65;3.83;;;0.90;99.90;;;-148.53;100.00;63986.66;5037165;28;20045;-83
2024/02/26 04:40:05;;;;;;;7.63;4.13;;;0.90;99.90;;;-148.53;100.00;63986.66;5014424;28;20048;-83
2024/02/26 04:42:31;;;;;;;7.03;4.13;;;0.90;99.90;;;-148.53;100.00;63986.66;5014315;28;20520;-83
2024/02/26 04:44:56;;;;;;;7.57;4.10;;;0.90;99.90;;;-148.53;100.00;63986.66;5014422;28;20037;-83
2024/02/26 04:47:22;;;;;;;7.07;4.18;;;1.00;99.90;;;-148.53;100.00;63986.66;5019830;28;20042;-83
2024/02/26 04:49:50;;;;;;;6.90;4.07;;;1.10;99.90;;;-148.53;100.00;63986.66;5014583;28;20203;-83
2024/02/26 04:52:16;;;;;;;7.10;3.90;;;1.10;99.90;;;-148.53;100.00;63986.66;5026479;28;20038;-82
2024/02/26 04:54:41;;;;;;;8.90;3.85;;;1.20;99.90;;;-148.53;100.00;63986.66;5029831;28;20388;-82
2024/02/26 04:57:07;;;;;;;7.07;4.50;;;1.30;99.90;;;-148.53;100.00;63986.66;5028782;28;20044;-83
2024/02/26 04:59:33;;;;;;;8.90;4.18;;;1.30;99.90;;;-148.53;100.00;63986.66;5021373;28;20046;-82
2024/02/26 05:01:59;;;;;;;6.50;3.92;;;1.30;99.90;;;-148.53;100.00;63986.66;5025995;28;20116;-83
2024/02/26 05:04:24;;;;;;;6.88;3.97;;;1.20;99.90;;;-148.53;100.00;63986.66;5030544;28;20041;-84
2024/02/26 05:06:50;;;;;;;6.53;3.67;;;1.30;99.90;;;-148.53;100.00;63986.66;5016059;28;20041;-83
2024/02/26 05:09:16;;;;;;;6.45;4.00;;;1.30;99.90;;;-148.53;100.00;63986.66;5035782;28;20504;-83
2024/02/26 05:11:43;;;;;;;6.97;4.47;;;1.30;99.90;;;-148.53;100.00;63986.66;5023401;28;20061;-81
2024/02/26 05:14:09;;;;;;;6.80;4.32;;;1.30;99.90;;;-148.53;100.00;63986.66;5013552;28;20030;-82
2024/02/26 05:16:35;;;;;;;8.10;4.35;;;1.20;99.90;;;-148.53;100.00;63986.66;5015094;28;20046;-82
2024/02/26 05:19:00;;;;;;;6.30;4.50;;;1.20;99.90;;;-148.53;100.00;63986.66;5033504;28;20030;-82
2024/02/26 05:21:26;;;;;;;7.00;4.35;;;1.30;99.90;;;-148.53;100.00;63986.66;5031381;28;20045;-81
2024/02/26 05:23:52;;;;;;;7.82;4.82;;;1.20;99.90;;;-148.53;100.00;63986.66;5017536;28;20073;-82
2024/02/26 05:26:22;;;;;;;7.32;4.25;;;1.20;99.90;;;-148.53;100.00;63986.66;5029174;28;20040;-82
2024/02/26 05:28:49;;;;;;;8.73;4.28;;;1.30;99.90;;;-148.53;100.00;63986.66;5027317;28;20040;-83
2024/02/26 05:31:16;;;;;;;9.38;4.65;;;1.30;99.90;;;-148.53;100.00;63986.66;5014397;28;20073;-86
2024/02/26 05:33:42;;;;;;;7.70;4.40;;;1.40;99.90;;;-148.53;100.00;63986.66;5022258;28;20045;-82
2024/02/26 05:36:08;;;;;;;7.03;4.22;;;1.50;99.90;;;-148.53;100.00;63986.66;5022644;28;20290;-83
2024/02/26 05:38:33;;;;;;;6.90;4.30;;;1.50;99.90;;;-148.53;100.00;63986.66;5014747;28;20050;-82
2024/02/26 05:40:59;;;;;;;7.93;4.60;;;1.50;99.90;;;-148.53;100.00;63986.66;5020640;28;20136;-82
2024/02/26 05:43:26;;;;;;;8.25;4.90;;;1.60;99.90;;;-148.53;100.00;63986.66;5018113;28;20038;-84
2024/02/26 05:45:52;;;;;;;7.50;4.57;;;1.60;99.90;;;-148.53;100.00;63986.66;5026536;28;20258;-82
2024/02/26 05:48:19;;;;;;;8.02;4.30;;;1.60;99.90;;;-148.53;100.00;63986.66;5021989;28;20041;-80
2024/02/26 05:50:48;;;;;;;11.00;4.38;;;1.60;99.90;;;-148.53;100.00;63986.66;5027329;28;20052;-83
2024/02/26 05:53:14;;;;;;;7.00;4.90;;;1.70;99.90;;;-148.53;100.00;63986.66;5035014;28;20107;-82
2024/02/26 05:55:40;;;;;;;8.60;4.18;;;1.70;99.90;;;-148.53;100.00;63986.66;5022884;28;20030;-82
2024/02/26 05:58:05;;;;;;;7.28;4.35;;;1.70;99.90;;;-148.53;100.00;63986.66;5012980;28;20096;-82
2024/02/26 06:00:31;;;;;;;8.95;4.40;;;1.70;99.90;;;-148.53;100.00;63986.66;5034212;28;20037;-83
2024/02/26 06:02:57;;;;;;;7.50;4.40;;;1.70;99.90;;;-148.53;100.00;63986.66;5024631;28;20041;-83
2024/02/26 06:05:23;;;;;;;6.45;4.25;;;1.70;99.90;;;-148.53;100.00;63986.66;5013025;28;20443;-81
2024/02/26 06:07:49;;;;;;;6.07;4.03;;;1.70;99.90;;;-148.53;100.00;63986.66;5018288;28;20042;-84
2024/02/26 06:10:15;;;;;;;7.22;4.30;;;1.70;99.90;;;-148.53;100.00;63986.66;5012775;28;20034;-85
2024/02/26 06:12:41;;;;;;;6.78;4.32;;;1.70;99.90;;;-148.53;100.00;63986.66;5012852;28;20446;-83
2024/02/26 06:15:07;;;;;;;7.45;4.70;;;1.80;99.90;;;-148.53;100.00;63986.66;5012880;28;20056;-83
2024/02/26 06:17:33;;;;;;;8.13;4.90;;;1.80;99.90;;;-148.53;100.00;63986.66;5016843;28;20041;-83
2024/02/26 06:20:00;;;;;;;5.90;4.32;;;1.80;99.90;;;-148.53;100.00;63986.66;5018383;28;20092;-83
2024/02/26 06:22:26;;;;;;;8.70;4.30;;;1.90;99.90;;;-148.53;100.00;63986.66;5035365;28;20117;-81
2024/02/26 06:24:52;;;;;;;7.60;4.70;;;1.90;99.90;;;-148.53;100.00;63986.66;5026304;28;20435;-83
2024/02/26 06:27:18;;;;;;;7.10;4.07;;;2.00;99.90;;;-148.53;100.00;63986.66;5018830;28;20140;-84
2024/02/26 06:29:44;;;;;;;9.23;5.15;;;2.00;99.90;;;-148.53;100.00;63986.66;5015164;28;20057;-82
2024/02/26 06:32:09;;;;;;;8.05;4.95;;;2.00;99.90;;;-148.53;100.00;63986.66;5038075;28;20044;-82
2024/02/26 06:34:35;;;;;;;7.10;5.00;;;2.10;99.90;;;-148.53;100.00;63986.66;5015508;28;20079;-81
2024/02/26 06:37:03;;;;;;;9.02;4.50;;;2.10;99.90;;;-148.53;100.00;63986.66;5018201;28;20032;-81
2024/02/26 06:39:29;;;;;;;7.63;5.18;;;2.20;99.90;;;-148.53;100.00;63986.66;5017978;28;20030;-79
2024/02/26 06:42:00;;;;;;;8.38;4.70;;;2.20;99.90;;;-148.53;100.00;63986.66;5018084;28;20501;-83
2024/02/26 06:44:31;;;;;;;8.60;4.97;;;2.20;99.90;;;-148.53;100.00;63986.66;5018070;28;20029;-81
2024/02/26 06:46:59;;;;;;;9.57;5.20;;;2.30;99.90;;;-148.53;100.00;63986.66;5011166;28;20131;-82
2024/02/26 06:49:25;;;;;;;9.10;5.80;;;2.30;99.90;;;-148.53;100.00;63986.66;5010252;28;20057;-81
2024/02/26 06:51:50;;;;;;;9.10;5.40;;;2.30;99.90;;;-148.53;100.00;63986.66;5007990;28;20154;-82
2024/02/26 06:54:16;;;;;;;9.00;5.40;;;2.40;99.90;;;-148.53;100.00;63986.66;5011788;28;20453;-81
2024/02/26 06:56:42;;;;;;;9.43;5.15;;;2.40;99.90;;;-148.53;100.00;63986.66;5022811;28;20505;-82
2024/02/26 06:59:08;;;;;;;8.70;5.50;;;2.40;99.90;;;-148.53;100.00;63986.66;5023851;28;20052;-82
2024/02/26 07:01:34;;;;;;;10.95;5.90;;;2.50;99.90;;;-148.53;100.00;63986.66;5019734;28;20030;-82
2024/02/26 07:04:00;;;;;;;11.05;5.93;;;2.50;99.90;;;-148.53;100.00;63986.66;5016562;28;20050;-82
2024/02/26 07:06:29;;;;;;;8.55;5.43;;;2.60;99.90;;;-148.53;100.00;63986.66;5017511;28;20033;-81
2024/02/26 07:08:55;;;;;;;7.75;5.50;;;2.60;99.90;;;-148.53;100.00;63986.66;5012425;28;20104;-81
2024/02/26 07:11:21;;;;;;;9.05;5.80;;;2.60;99.90;;;-148.53;100.00;63986.66;5018866;28;20063;-81
2024/02/26 07:13:47;;;;;;;9.32;5.80;;;2.70;99.90;;;-148.53;100.00;63986.66;5022381;28;20034;-81
2024/02/26 07:16:13;;;;;;;10.23;6.70;;;2.70;99.90;;;-148.53;100.00;63986.66;5022648;28;20095;-81
2024/02/26 07:18:43;;;;;;;8.57;6.20;;;2.70;99.90;;;-148.53;100.00;63986.66;5024290;28;20131;-82
2024/02/26 07:21:09;;;;;;;10.10;6.63;;;2.80;99.90;;;-148.53;100.00;63986.66;5019387;28;20038;-81
2024/02/26 07:23:35;;;;;;;9.80;6.88;;;2.80;99.90;;;-148.53;100.00;63986.66;5012359;28;20040;-81
2024/02/26 07:26:00;;;;;;;8.63;5.95;;;2.80;99.90;;;-148.53;100.00;63986.66;5022704;28;20030;-81
2024/02/26 07:28:26;;;;;;;9.40;5.88;;;2.90;99.90;;;-148.53;100.00;63986.66;5012831;28;20042;-81
2024/02/26 07:30:52;;;;;;;11.05;6.25;;;2.90;99.90;;;-148.53;100.00;63986.66;5018704;28;20037;-81
2024/02/26 07:33:17;;;;;;;10.02;5.93;;;2.90;99.90;;;-148.53;100.00;63986.66;5045761;28;20040;-81
2024/02/26 07:35:43;;;;;;;8.32;5.88;;;3.00;99.90;;;-148.53;100.00;63986.66;5032234;28;20463;-81
2024/02/26 07:38:09;;;;;;;8.00;5.97;;;3.00;99.90;;;-148.53;100.00;63986.66;5036023;28;20038;-81
2024/02/26 07:40:36;;;;;;;8.75;5.60;;;3.20;99.90;;;-148.53;100.00;63986.66;5046287;28;20034;-81
2024/02/26 07:43:01;;;;;;;8.40;5.90;;;3.20;99.90;;;-148.53;100.00;63986.66;5018472;28;20172;-81
2024/02/26 07:45:27;;;;;;;10.35;6.20;;;3.30;99.90;;;-148.53;100.00;63986.66;5016001;28;20133;-81
2024/02/26 07:47:53;;;;;;;9.30;5.90;;;3.30;99.90;;;-148.53;100.00;63986.66;5015701;28;20561;-80
2024/02/26 07:50:19;;;;;;;8.07;5.60;;;3.40;99.90;;;-148.53;100.00;63986.66;5015827;28;20092;-80
2024/02/26 07:52:45;;;;;;;11.25;6.28;;;3.30;99.90;;;-148.53;100.00;63986.66;5019057;28;20042;-81
2024/02/26 07:55:11;;;;;;;10.32;5.95;;;3.40;99.90;;;-148.53;100.00;63986.66;5023705;28;20026;-81
2024/02/26 07:57:37;;;;;;;12.43;6.63;;;3.40;99.90;;;-148.53;100.00;63986.66;5023892;28;20041;-80
2024/02/26 08:00:07;;;;;;;9.65;5.95;;;3.50;99.90;;;-148.53;100.00;63986.66;5041928;28;20477;-81
2024/02/26 08:02:33;;;;;;;13.15;5.72;;;3.70;99.90;;;-148.53;100.00;63986.66;5026312;28;20045;-80
2024/02/26 08:04:59;;;;;;;9.60;5.90;;;3.70;99.90;;;-148.53;100.00;63986.66;5020666;28;20389;-80
2024/02/26 08:07:25;;;;;;;7.90;5.70;;;3.70;99.90;;;-148.53;100.00;63986.66;5026943;28;20092;-81
2024/02/26 08:09:51;;;;;;;8.75;5.93;;;3.80;99.90;;;-148.53;100.00;63986.66;5037729;28;20046;-81
2024/02/26 08:12:16;;;;;;;8.55;5.22;;;3.90;99.90;;;-148.53;100.00;63986.66;5037548;28;20041;-81
2024/02/26 08:14:43;;;;;;;8.80;5.53;;;4.10;99.90;;;-148.53;100.00;63986.66;5034736;28;20045;-81
2024/02/26 08:17:10;;;;;;;7.40;4.93;;;4.30;99.90;;;-148.53;100.00;63986.66;5045312;28;20033;-80
2024/02/26 08:19:35;;;;;;;7.30;5.18;;;4.30;99.90;;;-148.53;100.00;63986.66;5035594;28;20070;-81
2024/02/26 08:22:02;;;;;;;6.95;4.60;;;4.50;99.90;;;-148.53;100.00;63986.66;5021478;28;20426;-81
2024/02/26 08:24:28;;;;;;;8.13;4.72;;;4.50;99.90;;;-148.53;100.00;63986.66;5015285;28;20557;-80
2024/02/26 08:26:54;;;;;;;9.27;4.43;;;4.60;99.90;;;-148.53;100.00;63986.66;5020301;28;20128;-79
2024/02/26 08:29:19;;;;;;;6.20;4.28;;;4.50;99.90;;;-148.53;100.00;63986.66;5018440;28;20069;-81
2024/02/26 08:31:45;;;;;;;9.27;4.25;;;4.60;99.90;;;-148.53;100.00;63986.66;5026465;28;20041;-80
2024/02/26 08:34:11;;;;;;;6.43;4.10;;;4.70;99.90;;;-148.53;100.00;63986.66;5026243;28;20034;-81
2024/02/26 08:36:36;;;;;;;6.80;4.38;;;4.80;99.90;;;-148.53;100.00;63986.66;5019828;28;20042;-81
2024/02/26 08:39:02;;;;;;;6.57;3.63;;;4.90;99.90;;;-148.53;100.00;63986.66;5029911;28;20518;-81
2024/02/26 08:41:28;;;;;;;7.78;4.30;;;4.90;99.90;;;-148.53;100.00;63986.66;5023062;28;20041;-80
2024/02/26 08:43:54;;;;;;;7.68;3.88;;;5.10;99.90;;;-148.53;100.00;63986.66;5018567;28;20088;-82
2024/02/26 08:46:20;;;;;;;6.50;4.05;;;5.20;99.90;;;-148.53;100.00;63986.66;5014551;28;20030;-82
2024/02/26 08:48:46;;;;;;;6.88;4.00;;;5.30;99.90;;;-148.53;100.00;63986.66;5041490;28;20030;-81
2024/02/26 08:51:12;;;;;;;5.97;4.18;;;5.40;99.90;;;-148.53;100.00;63986.66;5018635;28;20033;-81
2024/02/26 08:53:39;;;;;;;6.47;3.80;;;5.50;99.90;;;-148.53;100.00;63986.66;5014351;28;20478;-80
2024/02/26 08:56:05;;;;;;;4.55;3.35;;;5.60;99.90;;;-148.53;100.00;63986.66;5015240;28;20029;-84
2024/02/26 08:58:31;;;;;;;5.25;3.58;;;5.60;99.90;;;-148.53;100.00;63986.66;5043226;28;20044;-81
2024/02/26 09:00:57;;;;;;;5.30;3.55;;;5.70;99.90;;;-148.53;100.00;63986.66;5013903;28;20037;-81
2024/02/26 09:03:23;;;;;;;5.82;3.47;;;5.70;99.90;;;-148.53;100.00;63986.66;5024122;28;20050;-81
2024/02/26 09:05:49;;;;;;;6.68;3.50;;;5.80;99.90;;;-148.53;100.00;63986.66;5024154;28;20029;-81
2024/02/26 09:08:15;;;;;;;5.47;3.72;;;5.90;99.90;;;-148.53;100.00;63986.66;5026020;28;20057;-81
2024/02/26 09:10:41;;;;;;;5.03;3.38;;;5.90;99.90;;;-148.53;100.00;63986.66;5020623;28;20034;-81
2024/02/26 09:13:07;;;;;;;6.57;3.13;;;6.00;99.90;;;-148.53;100.00;63986.66;5014731;28;20186;-80
2024/02/26 09:15:33;;;;;;;4.78;3.20;;;6.00;99.90;;;-148.53;100.00;63986.66;5027499;28;20128;-80
2024/02/26 09:17:58;;;;;;;4.47;3.10;;;6.00;99.90;;;-148.53;100.00;63986.66;5023450;28;20040;-80
2024/02/26 09:20:24;;;;;;;6.10;3.17;;;6.10;99.90;;;-148.53;100.00;63986.66;5026469;28;20071;-81
2024/02/26 09:22:50;;;;;;;6.00;2.95;;;6.10;99.90;;;-148.53;100.00;63986.66;5017173;28;20195;-79
2024/02/26 09:25:17;;;;;;;6.07;3.47;;;6.00;99.90;;;-148.53;100.00;63986.66;5017771;28;20080;-79
2024/02/26 09:27:47;;;;;;;4.88;2.90;;;5.90;99.90;;;-148.53;100.00;63986.66;5032405;28;20102;-78
2024/02/26 09:30:13;;;;;;;4.03;2.60;;;5.90;99.90;;;-148.53;100.00;63986.66;5013742;28;20041;-78
2024/02/26 09:32:40;;;;;;;5.65;2.80;;;6.00;99.90;;;-148.53;100.00;63986.66;5025006;28;20492;-78
2024/02/26 09:35:06;;;;;;;5.88;2.78;;;6.10;99.90;;;-148.53;100.00;63986.66;5013021;28;20371;-78
2024/02/26 09:37:33;;;;;;;4.07;2.70;;;6.10;99.90;;;-148.53;100.00;63986.66;5016595;28;20128;-79
2024/02/26 09:39:59;;;;;;;5.00;2.67;;;6.30;99.90;;;-148.53;100.00;63986.66;5021716;28;20229;-78
2024/02/26 09:42:31;;;;;;;5.18;3.00;;;6.10;99.90;;;-148.53;100.00;63986.66;5013604;28;20123;-77
2024/02/26 09:45:02;;;;;;;6.10;2.85;;;6.10;99.90;;;-148.53;100.00;63986.66;5036361;28;20045;-76
2024/02/26 09:47:32;;;;;;;5.13;2.92;;;6.20;99.90;;;-148.53;100.00;63986.66;5022290;28;20037;-76
2024/02/26 09:50:02;;;;;;;5.57;3.15;;;6.30;99.90;;;-148.53;100.00;63986.66;5035603;28;20045;-75
2024/02/26 09:52:30;;;;;;;4.65;2.72;;;6.40;99.90;;;-148.53;100.00;63986.66;5016854;28;20047;-76
2024/02/26 09:54:56;;;;;;;4.88;2.60;;;6.70;99.90;;;-148.53;100.00;63986.66;5018126;28;20034;-75
2024/02/26 09:57:24;;;;;;;5.95;2.40;;;6.60;99.90;;;-148.53;100.00;63986.66;5013202;28;20489;-75
2024/02/26 09:59:53;;;;;;;4.35;2.30;;;6.60;99.90;;;-148.53;100.00;63986.66;5022549;28;20104;-75
2024/02/26 10:02:21;;;;;;;5.35;2.50;;;6.70;99.90;;;-148.53;100.00;63986.66;5017118;28;20385;-75